createdAt,value
2019-03-24T00:01:22.207Z,8.27
2019-03-24T00:03:56.472Z,6.13
2019-03-24T00:06:30.780Z,5.20
2019-03-24T00:09:07.363Z,5.70
2019-03-24T00:11:41.643Z,5.53
2019-03-24T00:14:15.848Z,5.60
2019-03-24T00:16:50.085Z,6.97
2019-03-24T00:19:24.697Z,7.17
2019-03-24T00:21:58.931Z,9.37
2019-03-24T00:24:33.203Z,9.70
2019-03-24T00:27:09.406Z,9.60
2019-03-24T00:29:43.712Z,9.30
2019-03-24T00:32:17.941Z,7.97
2019-03-24T00:34:52.289Z,7.50
2019-03-24T00:37:26.818Z,7.03
2019-03-24T00:40:01.638Z,7.60
2019-03-24T00:42:35.935Z,8.53
2019-03-24T00:45:10.507Z,7.10
2019-03-24T00:47:44.744Z,8.30
2019-03-24T00:50:19.024Z,7.50
2019-03-24T00:52:53.247Z,9.40
2019-03-24T00:55:27.524Z,7.70
2019-03-24T00:58:01.762Z,8.00
2019-03-24T01:00:47.397Z,7.73
2019-03-24T01:03:21.694Z,7.23
2019-03-24T01:05:56.023Z,6.40
2019-03-24T01:08:30.324Z,8.37
2019-03-24T01:11:05.280Z,9.43
2019-03-24T01:13:39.503Z,9.57
2019-03-24T01:16:13.774Z,6.17
2019-03-24T01:18:48.292Z,7.83
2019-03-24T01:21:22.645Z,7.30
2019-03-24T01:23:57.136Z,6.30
2019-03-24T01:26:31.407Z,7.43
2019-03-24T01:29:05.701Z,6.40
2019-03-24T01:31:39.958Z,6.70
2019-03-24T01:34:14.191Z,6.10
2019-03-24T01:36:48.461Z,6.70
2019-03-24T01:39:23.062Z,5.70
2019-03-24T01:41:57.588Z,6.83
2019-03-24T01:44:32.124Z,5.80
2019-03-24T01:47:06.786Z,5.40
2019-03-24T01:49:41.011Z,6.17
2019-03-24T01:52:15.303Z,8.83
2019-03-24T01:54:50.181Z,8.80
2019-03-24T01:57:24.443Z,6.20
2019-03-24T01:59:58.747Z,6.60
2019-03-24T02:02:33.575Z,6.57
2019-03-24T02:05:08.264Z,7.43
2019-03-24T02:07:42.519Z,6.70
2019-03-24T02:10:17.005Z,8.13
2019-03-24T02:12:51.371Z,7.40
2019-03-24T02:15:25.614Z,9.50
2019-03-24T02:17:59.884Z,7.73
2019-03-24T02:20:34.396Z,7.53
2019-03-24T02:23:08.642Z,7.80
2019-03-24T02:25:42.950Z,7.90
2019-03-24T02:28:17.516Z,5.70
2019-03-24T02:30:51.976Z,5.70
2019-03-24T02:33:26.818Z,6.13
2019-03-24T02:36:01.052Z,6.57
2019-03-24T02:38:35.628Z,7.10
2019-03-24T02:41:10.166Z,6.50
2019-03-24T02:43:44.412Z,6.23
2019-03-24T02:46:24.516Z,5.50
2019-03-24T02:48:54.630Z,6.93
2019-03-24T02:51:28.858Z,5.73
2019-03-24T02:54:03.140Z,7.40
2019-03-24T02:56:37.364Z,7.57
2019-03-24T02:59:11.612Z,6.93
2019-03-24T03:01:45.846Z,7.10
2019-03-24T03:04:20.368Z,6.70
2019-03-24T03:06:54.670Z,4.00
2019-03-24T03:09:28.922Z,4.00
2019-03-24T03:12:03.242Z,4.23
2019-03-24T03:14:37.479Z,3.70
2019-03-24T03:17:11.774Z,4.83
2019-03-24T03:19:46.033Z,6.07
2019-03-24T03:22:20.282Z,5.03
2019-03-24T03:24:54.528Z,4.57
2019-03-24T03:27:29.004Z,3.73
2019-03-24T03:30:04.153Z,3.10
2019-03-24T03:32:38.469Z,4.10
2019-03-24T03:35:13.550Z,4.07
2019-03-24T03:37:47.782Z,3.47
2019-03-24T03:40:22.025Z,3.37
2019-03-24T03:42:56.575Z,3.20
2019-03-24T03:45:31.199Z,3.03
2019-03-24T03:48:05.494Z,3.50
2019-03-24T03:50:39.720Z,2.90
2019-03-24T03:53:13.940Z,3.70
2019-03-24T03:55:48.201Z,3.00
2019-03-24T03:58:22.509Z,3.00
2019-03-24T04:00:56.747Z,3.67
2019-03-24T04:03:31.394Z,3.80
2019-03-24T04:06:05.715Z,4.03
2019-03-24T04:08:39.939Z,4.07
2019-03-24T04:11:14.462Z,4.20
2019-03-24T04:13:48.691Z,4.43
2019-03-24T04:16:22.942Z,3.73
2019-03-24T04:18:57.501Z,4.80
2019-03-24T04:21:31.840Z,4.20
2019-03-24T04:24:06.174Z,3.50
2019-03-24T04:26:40.429Z,4.53
2019-03-24T04:29:14.645Z,3.70
2019-03-24T04:31:48.902Z,4.50
2019-03-24T04:34:23.503Z,3.50
2019-03-24T04:36:57.868Z,3.70
2019-03-24T04:39:32.108Z,3.50
2019-03-24T04:42:06.357Z,5.60
2019-03-24T04:44:40.657Z,5.90
2019-03-24T04:47:16.820Z,4.23
2019-03-24T04:49:51.480Z,4.50
2019-03-24T04:52:25.728Z,4.50
2019-03-24T04:54:59.958Z,6.13
2019-03-24T04:57:34.540Z,5.03
2019-03-24T05:00:10.208Z,4.60
2019-03-24T05:02:44.710Z,5.30
2019-03-24T05:05:18.935Z,4.00
2019-03-24T05:10:38.494Z,4.60
2019-03-24T05:13:12.727Z,4.43
2019-03-24T05:15:46.972Z,3.60
2019-03-24T05:18:21.198Z,3.40
2019-03-24T05:20:55.530Z,3.63
2019-03-24T05:23:29.765Z,3.97
2019-03-24T05:26:04.241Z,3.23
2019-03-24T05:28:38.469Z,3.90
2019-03-24T05:31:12.731Z,4.47
2019-03-24T05:33:46.960Z,5.07
2019-03-24T05:36:21.259Z,5.00
2019-03-24T05:38:55.481Z,4.23
2019-03-24T05:41:29.722Z,4.00
2019-03-24T05:44:04.042Z,5.55
2019-03-24T05:46:38.879Z,7.03
2019-03-24T05:49:13.185Z,6.30
2019-03-24T05:51:47.441Z,8.03
2019-03-24T05:54:22.033Z,7.73
2019-03-24T05:56:56.278Z,6.93
2019-03-24T05:59:30.511Z,6.63
2019-03-24T06:02:04.770Z,5.07
2019-03-24T06:04:39.018Z,3.58
2019-03-24T06:07:13.276Z,4.20
2019-03-24T06:09:47.839Z,3.53
2019-03-24T06:12:22.084Z,3.60
2019-03-24T06:14:56.311Z,3.40
2019-03-24T06:17:30.640Z,4.20
2019-03-24T06:20:05.515Z,4.60
2019-03-24T06:22:40.112Z,6.53
2019-03-24T06:25:14.493Z,7.30
2019-03-24T06:27:48.746Z,7.63
2019-03-24T06:30:22.979Z,7.93
2019-03-24T06:32:57.314Z,6.60
2019-03-24T06:35:31.616Z,5.60
2019-03-24T06:38:05.958Z,5.20
2019-03-24T06:40:40.260Z,7.33
2019-03-24T06:43:14.519Z,6.03
2019-03-24T06:45:49.062Z,5.93
2019-03-24T06:48:23.307Z,6.60
2019-03-24T06:50:57.530Z,6.20
2019-03-24T06:53:31.786Z,5.87
2019-03-24T06:56:06.013Z,5.57
2019-03-24T06:58:40.644Z,5.43
2019-03-24T07:01:14.831Z,5.37
2019-03-24T07:03:49.070Z,4.90
2019-03-24T07:06:23.645Z,4.50
2019-03-24T07:08:57.895Z,4.33
2019-03-24T07:11:32.131Z,3.70
2019-03-24T07:14:06.644Z,3.70
2019-03-24T07:16:41.117Z,3.37
2019-03-24T07:19:15.384Z,3.73
2019-03-24T07:21:49.930Z,4.43
2019-03-24T07:24:24.184Z,3.87
2019-03-24T07:26:58.411Z,4.23
2019-03-24T07:29:32.882Z,4.50
2019-03-24T07:32:07.188Z,4.70
2019-03-24T07:34:41.506Z,5.77
2019-03-24T07:37:15.755Z,6.63
2019-03-24T07:39:50.425Z,6.40
2019-03-24T07:42:24.745Z,6.43
2019-03-24T07:44:58.994Z,7.17
2019-03-24T07:47:33.546Z,5.73
2019-03-24T07:50:08.759Z,5.77
2019-03-24T07:52:42.992Z,5.03
2019-03-24T07:55:17.247Z,5.40
2019-03-24T07:57:51.554Z,5.50
2019-03-24T08:00:36.057Z,6.13
2019-03-24T08:03:10.284Z,4.90
2019-03-24T08:05:44.533Z,5.80
2019-03-24T08:08:18.764Z,5.70
2019-03-24T08:10:53.091Z,6.63
2019-03-24T08:13:27.405Z,4.10
2019-03-24T08:16:01.734Z,5.60
2019-03-24T08:18:36.317Z,5.60
2019-03-24T08:21:10.655Z,6.13
2019-03-24T08:23:44.888Z,4.70
2019-03-24T08:26:19.225Z,7.47
2019-03-24T08:28:53.466Z,3.70
2019-03-24T08:31:27.728Z,4.10
2019-03-24T08:34:02.250Z,5.70
2019-03-24T08:36:36.623Z,4.77
2019-03-24T08:39:10.866Z,5.10
2019-03-24T08:41:45.144Z,4.50
2019-03-24T08:44:19.684Z,6.33
2019-03-24T08:46:53.951Z,6.03
2019-03-24T08:49:28.182Z,5.00
2019-03-24T08:52:02.429Z,5.50
2019-03-24T08:54:36.661Z,5.23
2019-03-24T08:57:10.924Z,5.20
2019-03-24T08:59:45.502Z,4.60
2019-03-24T09:02:19.756Z,6.00
2019-03-24T09:04:53.992Z,6.47
2019-03-24T09:07:28.253Z,6.47
2019-03-24T09:10:02.500Z,5.57
2019-03-24T09:12:36.748Z,4.70
2019-03-24T09:15:11.137Z,5.30
2019-03-24T09:17:45.479Z,6.00
2019-03-24T09:20:19.881Z,4.83
2019-03-24T09:22:54.149Z,6.07
2019-03-24T09:25:28.410Z,4.90
2019-03-24T09:28:02.714Z,5.50
2019-03-24T09:30:38.886Z,4.10
2019-03-24T09:33:13.146Z,7.63
2019-03-24T09:35:47.469Z,5.60
2019-03-24T09:38:21.729Z,5.97
2019-03-24T09:40:56.330Z,6.23
2019-03-24T09:43:30.626Z,4.50
2019-03-24T09:46:04.936Z,3.90
2019-03-24T09:48:39.189Z,4.23
2019-03-24T09:51:13.429Z,4.57
2019-03-24T09:53:47.965Z,5.47
2019-03-24T09:56:22.204Z,5.60
2019-03-24T09:58:56.805Z,4.17
2019-03-24T10:01:31.044Z,5.00
2019-03-24T10:04:05.306Z,4.57
2019-03-24T10:06:39.599Z,5.13
2019-03-24T10:09:13.800Z,5.03
2019-03-24T10:11:49.091Z,7.23
2019-03-24T10:14:23.580Z,5.40
2019-03-24T10:16:57.786Z,5.13
2019-03-24T10:19:32.344Z,4.83
2019-03-24T10:22:06.650Z,4.30
2019-03-24T10:24:40.904Z,5.27
2019-03-24T10:27:15.147Z,4.90
2019-03-24T10:29:49.423Z,5.60
2019-03-24T10:32:23.667Z,4.60
2019-03-24T10:34:57.929Z,3.83
2019-03-24T10:37:32.173Z,3.90
2019-03-24T10:40:07.508Z,4.60
2019-03-24T10:42:41.976Z,3.77
2019-03-24T10:45:16.598Z,3.90
2019-03-24T10:47:50.849Z,3.90
2019-03-24T10:50:25.101Z,6.40
2019-03-24T10:52:59.687Z,4.23
2019-03-24T10:55:34.015Z,5.60
2019-03-24T10:58:08.321Z,3.67
2019-03-24T11:00:45.164Z,4.53
2019-03-24T11:03:19.589Z,4.30
2019-03-24T11:05:53.861Z,3.80
2019-03-24T11:08:28.179Z,4.90
2019-03-24T11:11:02.446Z,4.90
2019-03-24T11:13:37.264Z,5.20
2019-03-24T11:16:11.518Z,5.10
2019-03-24T11:18:45.762Z,3.60
2019-03-24T11:21:20.037Z,4.03
2019-03-24T11:23:54.272Z,4.30
2019-03-24T11:26:28.645Z,4.10
2019-03-24T11:29:03.516Z,3.60
2019-03-24T11:31:37.784Z,3.73
2019-03-24T11:34:12.455Z,3.20
2019-03-24T11:36:46.708Z,3.17
2019-03-24T11:39:21.212Z,3.60
2019-03-24T11:41:55.744Z,2.93
2019-03-24T11:44:29.935Z,3.07
2019-03-24T11:47:04.307Z,3.43
2019-03-24T11:49:46.071Z,3.23
2019-03-24T11:52:14.567Z,3.00
2019-03-24T11:54:48.813Z,3.63
2019-03-24T11:57:23.360Z,3.40
2019-03-24T11:59:57.616Z,3.47
2019-03-24T12:02:32.517Z,4.20
2019-03-24T12:05:07.843Z,2.80
2019-03-24T12:07:42.114Z,2.67
2019-03-24T12:10:16.442Z,2.60
2019-03-24T12:12:50.705Z,2.80
2019-03-24T12:15:25.018Z,2.70
2019-03-24T12:17:59.417Z,2.50
2019-03-24T12:20:33.800Z,2.60
2019-03-24T12:23:08.242Z,3.30
2019-03-24T12:25:42.813Z,2.67
2019-03-24T12:28:17.336Z,2.80
2019-03-24T12:30:51.958Z,2.70
2019-03-24T12:33:26.237Z,2.70
2019-03-24T12:36:00.477Z,2.50
2019-03-24T12:38:35.042Z,3.10
2019-03-24T12:41:09.357Z,2.40
2019-03-24T12:43:43.623Z,3.13
2019-03-24T12:46:17.870Z,2.83
2019-03-24T12:48:52.437Z,2.93
2019-03-24T12:51:26.695Z,2.90
2019-03-24T12:54:00.961Z,3.30
2019-03-24T12:56:35.205Z,2.90
2019-03-24T12:59:09.766Z,2.90
2019-03-24T13:01:44.018Z,8.43
2019-03-24T13:04:18.277Z,7.10
2019-03-24T13:06:52.519Z,2.90
2019-03-24T13:09:26.781Z,3.47
2019-03-24T13:12:01.040Z,3.27
2019-03-24T13:14:35.308Z,4.00
2019-03-24T13:17:09.632Z,3.17
2019-03-24T13:19:44.204Z,2.43
2019-03-24T13:22:18.529Z,2.97
2019-03-24T13:24:52.797Z,2.83
2019-03-24T13:27:27.041Z,2.97
2019-03-24T13:30:01.639Z,2.90
2019-03-24T13:32:35.898Z,2.40
2019-03-24T13:35:10.249Z,3.20
2019-03-24T13:37:44.823Z,2.60
2019-03-24T13:40:19.219Z,3.00
2019-03-24T13:42:53.539Z,2.00
2019-03-24T13:45:27.929Z,2.53
2019-03-24T13:48:02.173Z,2.27
2019-03-24T13:50:36.720Z,2.50
2019-03-24T13:53:10.961Z,2.63
2019-03-24T13:55:45.978Z,2.53
2019-03-24T13:58:20.306Z,2.70
2019-03-24T14:00:54.560Z,1.90
2019-03-24T14:03:28.801Z,2.90
2019-03-24T14:06:03.062Z,3.40
2019-03-24T14:08:37.303Z,1.87
2019-03-24T14:11:11.552Z,2.43
2019-03-24T14:13:46.097Z,2.10
2019-03-24T14:16:20.357Z,2.27
2019-03-24T14:18:54.608Z,2.83
2019-03-24T14:21:28.956Z,3.17
2019-03-24T14:24:03.203Z,4.07
2019-03-24T14:26:37.795Z,2.43
2019-03-24T14:29:12.034Z,3.60
2019-03-24T14:31:46.297Z,3.03
2019-03-24T14:34:20.533Z,2.30
2019-03-24T14:36:54.814Z,2.63
2019-03-24T14:39:29.387Z,2.17
2019-03-24T14:42:04.077Z,2.40
2019-03-24T14:44:38.313Z,2.23
2019-03-24T14:47:12.636Z,3.00
2019-03-24T14:49:47.101Z,3.70
2019-03-24T14:52:21.370Z,2.00
2019-03-24T14:54:55.882Z,4.30
2019-03-24T14:57:30.470Z,1.87
2019-03-24T15:00:06.554Z,3.00
2019-03-24T15:02:41.218Z,3.60
2019-03-24T15:05:15.808Z,2.73
2019-03-24T15:07:50.082Z,2.30
2019-03-24T15:10:24.326Z,2.30
2019-03-24T15:12:58.591Z,2.13
2019-03-24T15:15:32.843Z,1.97
2019-03-24T15:18:07.181Z,2.20
2019-03-24T15:20:41.414Z,2.57
2019-03-24T15:23:15.687Z,1.90
2019-03-24T15:25:49.920Z,2.60
2019-03-24T15:28:24.183Z,1.90
2019-03-24T15:30:58.829Z,1.90
2019-03-24T15:33:33.088Z,2.17
2019-03-24T15:36:07.646Z,1.70
2019-03-24T15:38:42.237Z,2.30
2019-03-24T15:41:18.422Z,1.70
2019-03-24T15:43:52.766Z,1.77
2019-03-24T15:46:27.009Z,0.90
2019-03-24T15:49:01.258Z,1.33
2019-03-24T15:51:35.785Z,1.10
2019-03-24T15:54:10.068Z,2.10
2019-03-24T15:56:44.350Z,1.57
2019-03-24T15:59:18.893Z,2.83
2019-03-24T16:01:53.121Z,2.00
2019-03-24T16:04:27.379Z,2.07
2019-03-24T16:07:01.625Z,1.60
2019-03-24T16:09:36.218Z,1.30
2019-03-24T16:12:10.470Z,1.93
2019-03-24T16:14:44.710Z,1.57
2019-03-24T16:17:18.939Z,2.70
2019-03-24T16:19:53.563Z,2.20
2019-03-24T16:22:27.823Z,3.60
2019-03-24T16:25:02.084Z,2.93
2019-03-24T16:27:36.640Z,2.73
2019-03-24T16:30:11.270Z,3.10
2019-03-24T16:32:45.483Z,3.40
2019-03-24T16:35:19.823Z,3.40
2019-03-24T16:37:54.065Z,4.20
2019-03-24T16:40:28.424Z,4.10
2019-03-24T16:43:02.836Z,4.33
2019-03-24T16:45:37.092Z,4.27
2019-03-24T16:48:11.377Z,4.40
2019-03-24T16:50:45.593Z,4.30
2019-03-24T16:53:19.810Z,2.93
2019-03-24T16:55:54.084Z,4.90
2019-03-24T16:58:28.349Z,3.77
2019-03-24T17:01:02.597Z,3.90
2019-03-24T17:03:36.839Z,3.93
2019-03-24T17:06:11.084Z,4.77
2019-03-24T17:08:45.325Z,3.57
2019-03-24T17:11:19.598Z,5.57
2019-03-24T17:13:54.087Z,3.40
2019-03-24T17:16:28.342Z,2.93
2019-03-24T17:19:02.572Z,4.17
2019-03-24T17:21:36.819Z,4.10
2019-03-24T17:24:11.056Z,3.40
2019-03-24T17:26:45.308Z,3.70
2019-03-24T17:29:19.537Z,3.43
2019-03-24T17:31:53.806Z,3.77
2019-03-24T17:34:28.313Z,3.90
2019-03-24T17:37:02.568Z,3.50
2019-03-24T17:39:36.807Z,3.00
2019-03-24T17:42:11.692Z,2.40
2019-03-24T17:44:45.924Z,3.30
2019-03-24T17:47:20.186Z,2.90
2019-03-24T17:49:54.416Z,2.87
2019-03-24T17:52:28.865Z,3.20
2019-03-24T17:55:03.100Z,4.30
2019-03-24T17:57:37.636Z,3.20
2019-03-24T18:00:14.023Z,3.70
2019-03-24T18:02:48.706Z,3.93
2019-03-24T18:05:23.012Z,4.90
2019-03-24T18:07:57.256Z,6.23
2019-03-24T18:10:31.854Z,3.87
2019-03-24T18:13:06.179Z,5.33
2019-03-24T18:15:40.660Z,4.47
2019-03-24T18:18:15.248Z,4.10
2019-03-24T18:20:49.503Z,4.90
2019-03-24T18:23:23.766Z,4.30
2019-03-24T18:25:58.259Z,4.67
2019-03-24T18:28:32.512Z,4.40
2019-03-24T18:31:06.888Z,4.57
2019-03-24T18:33:41.226Z,5.10
2019-03-24T18:36:15.464Z,4.50
2019-03-24T18:38:49.717Z,5.10
2019-03-24T18:41:24.027Z,4.67
2019-03-24T18:43:58.340Z,4.90
2019-03-24T18:46:32.580Z,4.10
2019-03-24T18:49:06.836Z,5.13
2019-03-24T18:51:41.073Z,6.60
2019-03-24T18:54:15.592Z,3.87
2019-03-24T18:56:50.174Z,5.13
2019-03-24T18:59:24.422Z,3.87
2019-03-24T19:01:58.690Z,5.00
2019-03-24T19:04:32.928Z,5.03
2019-03-24T19:07:07.262Z,4.33
2019-03-24T19:09:41.512Z,5.37
2019-03-24T19:12:15.843Z,4.90
2019-03-24T19:14:50.430Z,5.10
2019-03-24T19:17:24.741Z,5.67
2019-03-24T19:19:59.288Z,4.93
2019-03-24T19:22:33.987Z,5.47
2019-03-24T19:25:09.251Z,5.23
2019-03-24T19:27:43.492Z,4.30
2019-03-24T19:30:19.782Z,5.10
2019-03-24T19:32:54.101Z,5.63
2019-03-24T19:35:28.352Z,4.77
2019-03-24T19:38:03.108Z,4.27
2019-03-24T19:40:37.353Z,4.60
2019-03-24T19:43:11.605Z,5.33
2019-03-24T19:45:45.843Z,4.50
2019-03-24T19:48:20.089Z,4.33
2019-03-24T19:50:54.391Z,4.07
2019-03-24T19:53:28.638Z,3.87
2019-03-24T19:56:03.308Z,4.10
2019-03-24T19:58:37.555Z,3.20
2019-03-24T20:01:14.398Z,4.13
2019-03-24T20:03:48.164Z,4.73
2019-03-24T20:06:22.490Z,4.03
2019-03-24T20:08:56.713Z,5.10
2019-03-24T20:11:30.954Z,4.10
2019-03-24T20:14:05.270Z,4.70
2019-03-24T20:16:39.541Z,10.47
2019-03-24T20:19:13.778Z,3.40
2019-03-24T20:21:48.328Z,3.73
2019-03-24T20:24:22.555Z,5.00
2019-03-24T20:26:57.151Z,3.70
2019-03-24T20:29:31.668Z,4.87
2019-03-24T20:32:06.329Z,4.17
2019-03-24T20:34:40.564Z,3.50
2019-03-24T20:37:15.116Z,4.63
2019-03-24T20:39:49.916Z,4.00
2019-03-24T20:42:24.816Z,4.00
2019-03-24T20:44:59.385Z,4.75
2019-03-24T20:47:33.993Z,4.37
2019-03-24T20:50:09.395Z,3.33
2019-03-24T20:52:48.276Z,3.60
2019-03-24T20:55:22.584Z,3.20
2019-03-24T20:57:56.831Z,4.00
2019-03-24T21:00:33.916Z,3.47
2019-03-24T21:03:08.795Z,4.47
2019-03-24T21:05:43.071Z,4.10
2019-03-24T21:08:17.326Z,4.23
2019-03-24T21:10:51.594Z,4.20
2019-03-24T21:13:25.845Z,5.60
2019-03-24T21:16:00.580Z,2.80
2019-03-24T21:18:34.827Z,4.07
2019-03-24T21:21:09.059Z,3.50
2019-03-24T21:23:43.316Z,4.03
2019-03-24T21:26:17.631Z,4.20
2019-03-24T21:28:52.443Z,3.50
2019-03-24T21:31:26.940Z,4.00
2019-03-24T21:34:01.198Z,3.83
2019-03-24T21:36:35.442Z,3.90
2019-03-24T21:39:09.874Z,4.40
2019-03-24T21:41:44.115Z,3.80
2019-03-24T21:44:18.368Z,4.17
2019-03-24T21:46:52.600Z,3.90
2019-03-24T21:49:26.852Z,3.90
2019-03-24T21:52:01.085Z,3.67
2019-03-24T21:54:35.331Z,3.50
2019-03-24T21:57:09.925Z,4.03
2019-03-24T21:59:44.480Z,3.80
2019-03-24T22:02:18.708Z,4.00
2019-03-24T22:04:53.165Z,3.20
2019-03-24T22:07:27.819Z,3.90
2019-03-24T22:10:02.088Z,4.20
2019-03-24T22:12:36.311Z,4.13
2019-03-24T22:15:10.946Z,3.60
2019-03-24T22:17:45.179Z,4.37
2019-03-24T22:20:19.421Z,4.50
2019-03-24T22:22:53.667Z,4.43
2019-03-24T22:25:27.911Z,4.00
2019-03-24T22:28:02.144Z,4.53
2019-03-24T22:30:36.407Z,3.93
2019-03-24T22:33:10.709Z,3.33
2019-03-24T22:35:47.121Z,4.30
2019-03-24T22:38:20.925Z,4.40
2019-03-24T22:40:55.527Z,4.57
2019-03-24T22:43:30.109Z,4.80
2019-03-24T22:46:04.446Z,4.70
2019-03-24T22:48:38.740Z,5.30
2019-03-24T22:51:12.986Z,5.00
2019-03-24T22:53:47.226Z,6.00
2019-03-24T22:56:21.489Z,6.70
2019-03-24T22:58:56.033Z,6.10
2019-03-24T23:01:30.412Z,7.50
2019-03-24T23:04:04.895Z,6.40
2019-03-24T23:06:39.148Z,6.97
2019-03-24T23:09:13.552Z,6.10
2019-03-24T23:11:47.804Z,7.07
2019-03-24T23:14:22.060Z,6.70
2019-03-24T23:16:56.300Z,5.20
2019-03-24T23:19:30.531Z,6.10
2019-03-24T23:22:04.857Z,5.60
2019-03-24T23:24:39.087Z,7.00
2019-03-24T23:27:13.374Z,6.70
2019-03-24T23:29:47.604Z,6.13
2019-03-24T23:32:22.020Z,8.00
2019-03-24T23:34:56.242Z,6.90
2019-03-24T23:37:30.496Z,7.40
2019-03-24T23:40:05.699Z,6.60
2019-03-24T23:42:39.947Z,6.67
2019-03-24T23:45:14.435Z,6.83
2019-03-24T23:47:48.676Z,6.23
2019-03-24T23:50:22.919Z,6.93
2019-03-24T23:52:57.190Z,5.60
2019-03-24T23:55:31.414Z,6.20
2019-03-24T23:58:05.663Z,4.80
